createdAt,value
2022-10-19T00:01:42.159Z,80.02
2022-10-19T00:04:09.812Z,79.99
2022-10-19T00:06:37.952Z,80.01
2022-10-19T00:09:13.427Z,79.93
2022-10-19T00:11:44.615Z,79.97
2022-10-19T00:14:17.565Z,79.88
2022-10-19T00:16:47.008Z,79.83
2022-10-19T00:19:24.733Z,79.85
2022-10-19T00:21:52.750Z,79.43
2022-10-19T00:24:20.889Z,79.56
2022-10-19T00:26:48.474Z,79.60
2022-10-19T00:29:16.467Z,79.60
2022-10-19T00:31:44.081Z,79.78
2022-10-19T00:34:11.999Z,79.95
2022-10-19T00:36:40.995Z,79.91
2022-10-19T00:39:12.836Z,79.92
2022-10-19T00:41:40.755Z,79.92
2022-10-19T00:44:15.231Z,79.77
2022-10-19T00:46:48.090Z,79.73
2022-10-19T00:49:23.238Z,79.81
2022-10-19T00:51:55.005Z,79.95
2022-10-19T00:54:24.088Z,80.10
2022-10-19T00:56:55.044Z,80.15
2022-10-19T00:59:24.748Z,80.22
2022-10-19T01:01:54.419Z,80.25
2022-10-19T01:04:24.563Z,80.32
2022-10-19T01:06:54.341Z,80.32
2022-10-19T01:09:22.262Z,80.29
2022-10-19T01:12:01.528Z,80.32
2022-10-19T01:15:12.097Z,80.34
2022-10-19T01:21:32.310Z,80.32
2022-10-19T01:24:41.409Z,80.31
2022-10-19T01:27:21.175Z,80.38
2022-10-19T01:30:13.851Z,80.27
2022-10-19T01:33:03.281Z,80.40
2022-10-19T01:35:36.166Z,80.42
2022-10-19T01:38:23.171Z,80.51
2022-10-19T01:41:13.698Z,80.67
2022-10-19T01:43:52.609Z,80.77
2022-10-19T01:46:31.552Z,80.74
2022-10-19T01:49:07.833Z,80.75
2022-10-19T01:51:40.434Z,80.78
2022-10-19T01:54:13.560Z,80.91
2022-10-19T01:56:43.943Z,80.92
2022-10-19T01:59:14.100Z,80.89
2022-10-19T02:01:44.957Z,80.87
2022-10-19T02:04:17.588Z,80.86
2022-10-19T02:06:45.556Z,80.76
2022-10-19T02:09:15.239Z,80.81
2022-10-19T02:11:47.995Z,80.83
2022-10-19T02:14:18.385Z,80.87
2022-10-19T02:16:51.114Z,80.79
2022-10-19T02:21:51.791Z,80.84
2022-10-19T02:24:19.347Z,80.74
2022-10-19T02:26:47.099Z,80.75
2022-10-19T02:29:15.677Z,80.80
2022-10-19T02:31:43.687Z,80.76
2022-10-19T02:34:12.002Z,80.75
2022-10-19T02:36:39.804Z,80.63
2022-10-19T02:39:08.091Z,80.69
2022-10-19T02:41:44.189Z,80.84
2022-10-19T02:44:26.203Z,80.98
2022-10-19T02:47:14.507Z,80.98
2022-10-19T02:49:43.657Z,81.21
2022-10-19T02:52:13.268Z,81.15
2022-10-19T02:54:43.648Z,81.16
2022-10-19T02:57:18.155Z,81.22
2022-10-19T02:59:46.455Z,81.37
2022-10-19T03:02:15.481Z,81.21
2022-10-19T03:07:18.392Z,81.12
2022-10-19T03:09:46.721Z,81.09
2022-10-19T03:12:15.356Z,81.12
2022-10-19T03:14:43.628Z,81.20
2022-10-19T03:17:11.817Z,81.25
2022-10-19T03:19:39.650Z,81.24
2022-10-19T03:22:07.808Z,81.31
2022-10-19T03:24:35.689Z,81.31
2022-10-19T03:27:03.641Z,81.37
2022-10-19T03:29:31.524Z,81.39
2022-10-19T03:31:59.745Z,81.51
2022-10-19T03:34:27.704Z,81.42
2022-10-19T03:36:56.290Z,81.46
2022-10-19T03:39:24.168Z,81.45
2022-10-19T03:41:51.943Z,81.46
2022-10-19T03:44:19.459Z,81.42
2022-10-19T03:46:47.236Z,81.40
2022-10-19T03:49:15.476Z,81.35
2022-10-19T03:51:43.447Z,81.41
2022-10-19T03:54:16.588Z,81.38
2022-10-19T03:56:44.545Z,81.28
2022-10-19T03:59:15.364Z,81.23
2022-10-19T04:01:45.881Z,81.29
2022-10-19T04:04:16.896Z,81.41
2022-10-19T04:06:47.364Z,81.51
2022-10-19T04:09:19.259Z,81.56
2022-10-19T04:11:47.550Z,81.56
2022-10-19T04:14:26.836Z,81.58
2022-10-19T04:16:47.862Z,81.62
2022-10-19T04:19:16.210Z,81.46
2022-10-19T04:21:45.989Z,81.47
2022-10-19T04:24:17.519Z,81.41
2022-10-19T04:26:49.260Z,81.53
2022-10-19T04:29:32.560Z,81.70
2022-10-19T04:32:02.220Z,81.69
2022-10-19T04:34:30.089Z,81.78
2022-10-19T04:37:00.702Z,82.04
2022-10-19T04:39:28.577Z,82.05
2022-10-19T04:41:56.177Z,82.07
2022-10-19T04:46:51.205Z,82.24
2022-10-19T04:49:20.284Z,82.29
2022-10-19T04:51:48.330Z,82.36
2022-10-19T04:54:16.030Z,82.42
2022-10-19T04:56:43.884Z,82.40
2022-10-19T04:59:11.604Z,82.53
2022-10-19T05:01:44.767Z,82.52
2022-10-19T05:04:10.938Z,82.49
2022-10-19T05:06:38.599Z,82.79
2022-10-19T05:09:06.518Z,82.95
2022-10-19T05:11:34.568Z,82.99
2022-10-19T05:14:02.258Z,83.35
2022-10-19T05:16:29.934Z,83.30
2022-10-19T05:18:59.154Z,83.23
2022-10-19T05:21:28.498Z,83.15
2022-10-19T05:23:57.283Z,83.02
2022-10-19T05:26:27.231Z,82.20
2022-10-19T05:28:58.993Z,81.51
2022-10-19T05:31:30.296Z,81.09
2022-10-19T05:33:59.872Z,80.43
2022-10-19T05:36:36.276Z,79.37
2022-10-19T05:39:08.952Z,79.24
2022-10-19T05:41:36.735Z,78.36
2022-10-19T05:44:05.434Z,77.38
2022-10-19T05:46:34.440Z,76.47
2022-10-19T05:49:02.422Z,75.29
2022-10-19T05:51:30.254Z,73.80
2022-10-19T05:53:58.494Z,73.30
2022-10-19T05:56:28.717Z,72.31
2022-10-19T05:58:59.071Z,71.79
2022-10-19T06:01:28.433Z,71.27
2022-10-19T06:03:58.343Z,70.50
2022-10-19T06:06:27.165Z,70.02
2022-10-19T06:08:56.609Z,66.78
2022-10-19T06:11:29.103Z,67.72
2022-10-19T06:13:59.425Z,68.07
2022-10-19T06:16:28.299Z,67.77
2022-10-19T06:18:56.965Z,67.34
2022-10-19T06:21:29.529Z,67.00
2022-10-19T06:24:01.988Z,66.54
2022-10-19T06:26:32.259Z,66.31
2022-10-19T06:29:01.706Z,66.24
2022-10-19T06:31:35.893Z,66.40
2022-10-19T06:34:04.089Z,66.25
2022-10-19T06:36:32.717Z,65.57
2022-10-19T06:39:01.306Z,65.89
2022-10-19T06:41:31.017Z,65.67
2022-10-19T06:44:00.430Z,65.43
2022-10-19T06:46:29.106Z,64.08
2022-10-19T06:48:59.983Z,64.46
2022-10-19T06:51:30.295Z,65.38
2022-10-19T06:53:58.110Z,65.67
2022-10-19T06:56:26.833Z,65.40
2022-10-19T06:58:55.161Z,64.80
2022-10-19T07:01:23.685Z,64.29
2022-10-19T07:03:53.121Z,64.33
2022-10-19T07:06:21.708Z,64.36
2022-10-19T07:08:49.498Z,62.94
2022-10-19T07:11:22.240Z,62.77
2022-10-19T07:13:52.223Z,62.95
2022-10-19T07:16:28.439Z,62.39
2022-10-19T07:18:56.157Z,62.18
2022-10-19T07:21:24.048Z,62.01
2022-10-19T07:23:51.862Z,61.92
2022-10-19T07:26:27.403Z,62.00
2022-10-19T07:28:57.100Z,62.00
2022-10-19T07:31:28.162Z,62.30
2022-10-19T07:33:59.463Z,62.65
2022-10-19T07:36:29.904Z,62.34
2022-10-19T07:38:57.695Z,62.06
2022-10-19T07:41:26.183Z,62.58
2022-10-19T07:43:57.095Z,61.90
2022-10-19T07:46:30.216Z,61.53
2022-10-19T07:48:57.737Z,60.61
2022-10-19T07:51:26.826Z,60.22
2022-10-19T07:53:54.443Z,60.46
2022-10-19T07:56:24.159Z,60.15
2022-10-19T07:58:54.465Z,60.27
2022-10-19T08:01:34.786Z,60.63
2022-10-19T08:06:32.406Z,60.69
2022-10-19T08:09:00.514Z,60.68
2022-10-19T08:11:32.201Z,60.06
2022-10-19T08:14:02.171Z,60.12
2022-10-19T08:16:37.033Z,60.07
2022-10-19T08:19:11.692Z,59.72
2022-10-19T08:21:42.335Z,59.36
2022-10-19T08:24:11.046Z,59.14
2022-10-19T08:26:39.591Z,58.96
2022-10-19T08:29:14.124Z,59.25
2022-10-19T08:31:45.288Z,59.00
2022-10-19T08:34:13.795Z,58.32
2022-10-19T08:39:12.173Z,59.67
2022-10-19T08:41:59.952Z,59.64
2022-10-19T08:44:49.311Z,59.92
2022-10-19T08:47:46.381Z,60.43
2022-10-19T08:50:28.012Z,60.34
2022-10-19T08:53:06.736Z,59.65
2022-10-19T08:55:57.845Z,59.58
2022-10-19T08:58:50.644Z,59.15
2022-10-19T09:01:23.958Z,59.50
2022-10-19T09:04:06.373Z,59.69
2022-10-19T09:06:45.519Z,60.24
2022-10-19T09:09:14.710Z,60.36
2022-10-19T09:11:50.322Z,60.53
2022-10-19T09:14:38.182Z,60.94
2022-10-19T09:17:16.576Z,61.24
2022-10-19T09:19:44.391Z,61.60
2022-10-19T09:22:24.534Z,61.77
2022-10-19T09:25:12.492Z,61.91
2022-10-19T09:27:43.085Z,61.76
2022-10-19T09:30:22.697Z,62.15
2022-10-19T09:32:59.012Z,62.46
2022-10-19T09:35:35.147Z,62.85
2022-10-19T09:38:06.377Z,63.04
2022-10-19T09:40:35.181Z,63.39
2022-10-19T09:43:15.086Z,63.86
2022-10-19T09:46:19.766Z,64.27
2022-10-19T09:48:51.423Z,64.55
2022-10-19T09:51:20.901Z,65.17
2022-10-19T09:53:54.362Z,65.45
2022-10-19T09:56:27.765Z,65.41
2022-10-19T09:58:58.427Z,64.91
2022-10-19T10:01:41.439Z,64.61
2022-10-19T10:04:15.463Z,64.27
2022-10-19T10:06:46.305Z,64.23
2022-10-19T10:09:25.515Z,63.00
2022-10-19T10:11:57.326Z,62.72
2022-10-19T10:14:32.170Z,63.18
2022-10-19T10:17:07.315Z,63.17
2022-10-19T10:19:35.596Z,62.94
2022-10-19T10:22:04.430Z,63.12
2022-10-19T10:24:34.216Z,62.85
2022-10-19T10:27:04.970Z,62.29
2022-10-19T10:29:35.895Z,61.82
2022-10-19T10:32:08.612Z,61.90
2022-10-19T10:34:58.570Z,61.94
2022-10-19T10:37:39.307Z,62.10
2022-10-19T10:40:23.642Z,62.21
2022-10-19T10:42:54.896Z,62.15
2022-10-19T10:45:41.439Z,61.96
2022-10-19T10:48:29.750Z,62.04
2022-10-19T10:51:00.162Z,62.32
2022-10-19T10:53:42.947Z,62.20
2022-10-19T10:56:38.083Z,62.21
2022-10-19T10:59:58.827Z,62.41
2022-10-19T11:03:11.334Z,62.76
2022-10-19T11:05:49.510Z,62.82
2022-10-19T11:12:09.715Z,62.92
2022-10-19T11:15:00.815Z,63.10
2022-10-19T11:17:32.962Z,63.20
2022-10-19T11:20:01.363Z,63.31
2022-10-19T11:22:54.376Z,63.39
2022-10-19T11:29:25.845Z,63.60
2022-10-19T11:31:55.901Z,63.72
2022-10-19T11:34:45.173Z,63.96
2022-10-19T11:37:29.966Z,64.04
2022-10-19T11:40:22.310Z,64.29
2022-10-19T11:43:26.289Z,64.50
2022-10-19T11:46:22.872Z,64.54
2022-10-19T11:49:14.066Z,64.56
2022-10-19T11:52:17.556Z,64.69
2022-10-19T11:55:07.975Z,64.90
2022-10-19T11:57:58.872Z,64.88
2022-10-19T12:00:45.841Z,64.84
2022-10-19T12:03:38.675Z,64.99
2022-10-19T12:06:29.565Z,65.16
2022-10-19T12:09:02.819Z,64.54
2022-10-19T12:11:47.964Z,64.24
2022-10-19T12:14:23.416Z,64.22
2022-10-19T12:17:01.439Z,64.13
2022-10-19T12:19:36.650Z,64.34
2022-10-19T12:22:07.088Z,64.22
2022-10-19T12:24:35.548Z,64.22
2022-10-19T12:27:04.752Z,64.37
2022-10-19T12:29:39.756Z,64.31
2022-10-19T12:32:08.037Z,64.42
2022-10-19T12:35:05.969Z,64.71
2022-10-19T12:37:47.605Z,64.64
2022-10-19T12:40:39.896Z,64.58
2022-10-19T12:43:36.764Z,64.56
2022-10-19T12:46:25.183Z,64.58
2022-10-19T12:49:32.856Z,64.23
2022-10-19T12:52:01.730Z,64.36
2022-10-19T12:54:35.887Z,64.32
2022-10-19T12:57:22.834Z,63.99
2022-10-19T13:00:01.665Z,64.10
2022-10-19T13:02:36.614Z,64.12
2022-10-19T13:05:05.611Z,64.21
2022-10-19T13:07:36.089Z,64.45
2022-10-19T13:10:09.267Z,64.64
2022-10-19T13:12:46.493Z,64.79
2022-10-19T13:15:39.445Z,64.91
2022-10-19T13:18:16.470Z,64.95
2022-10-19T13:24:29.370Z,65.18
2022-10-19T13:27:05.619Z,65.38
2022-10-19T13:29:44.855Z,65.47
2022-10-19T13:32:45.091Z,65.57
2022-10-19T13:35:30.481Z,65.60
2022-10-19T13:38:23.602Z,65.77
2022-10-19T13:41:15.953Z,65.82
2022-10-19T13:44:08.812Z,65.86
2022-10-19T13:47:06.127Z,65.78
2022-10-19T13:50:09.913Z,66.00
2022-10-19T13:52:51.436Z,66.25
2022-10-19T13:55:36.517Z,66.20
2022-10-19T13:58:31.935Z,66.26
2022-10-19T14:01:13.771Z,66.23
2022-10-19T14:04:10.590Z,66.20
2022-10-19T14:06:47.746Z,66.41
2022-10-19T14:09:32.440Z,66.45
2022-10-19T14:12:24.911Z,66.61
2022-10-19T14:14:53.384Z,66.64
2022-10-19T14:17:25.075Z,66.78
2022-10-19T14:19:57.289Z,66.79
2022-10-19T14:22:35.685Z,66.81
2022-10-19T14:25:14.295Z,66.92
2022-10-19T14:27:42.375Z,67.10
2022-10-19T14:30:25.792Z,67.13
2022-10-19T14:32:56.881Z,67.32
2022-10-19T14:35:34.215Z,67.37
2022-10-19T14:38:05.284Z,67.57
2022-10-19T14:40:39.434Z,67.61
2022-10-19T14:43:24.438Z,67.68
2022-10-19T14:46:09.795Z,67.88
2022-10-19T14:48:51.093Z,67.97
2022-10-19T14:51:53.841Z,68.03
2022-10-19T14:54:38.491Z,68.19
2022-10-19T14:57:26.164Z,68.32
2022-10-19T15:00:00.913Z,68.46
2022-10-19T15:02:40.415Z,68.58
2022-10-19T15:05:19.713Z,68.70
2022-10-19T15:07:48.398Z,68.83
2022-10-19T15:10:35.625Z,68.90
2022-10-19T15:13:04.662Z,68.96
2022-10-19T15:15:34.748Z,68.98
2022-10-19T15:18:06.243Z,69.05
2022-10-19T15:20:49.315Z,69.12
2022-10-19T15:23:46.669Z,69.29
2022-10-19T15:26:22.254Z,69.49
2022-10-19T15:28:51.204Z,69.56
2022-10-19T15:31:25.794Z,69.59
2022-10-19T15:34:02.262Z,69.73
2022-10-19T15:36:31.487Z,69.79
2022-10-19T15:39:18.165Z,69.89
2022-10-19T15:41:43.228Z,70.06
2022-10-19T15:44:37.762Z,70.24
2022-10-19T15:47:19.626Z,70.37
2022-10-19T15:50:02.380Z,70.67
2022-10-19T15:52:33.789Z,70.56
2022-10-19T15:55:02.310Z,70.59
2022-10-19T15:57:36.900Z,70.59
2022-10-19T16:00:17.218Z,70.64
2022-10-19T16:02:44.846Z,70.78
2022-10-19T16:05:12.249Z,70.94
2022-10-19T16:07:42.649Z,71.18
2022-10-19T16:10:17.717Z,71.28
2022-10-19T16:12:46.280Z,71.17
2022-10-19T16:15:24.828Z,71.36
2022-10-19T17:24:04.552Z,73.93
2022-10-19T17:26:37.364Z,74.02
2022-10-19T17:29:06.080Z,74.00
2022-10-19T17:31:34.506Z,74.04
2022-10-19T17:34:03.102Z,74.18
2022-10-19T17:36:43.859Z,74.20
2022-10-19T17:39:19.369Z,74.28
2022-10-19T17:41:49.602Z,74.28
2022-10-19T17:44:19.468Z,74.40
2022-10-19T17:46:47.949Z,74.50
2022-10-19T17:49:16.013Z,74.64
2022-10-19T17:52:10.530Z,74.74
2022-10-19T17:54:48.598Z,74.85
2022-10-19T17:57:08.707Z,75.03
2022-10-19T17:59:52.123Z,75.20
2022-10-19T18:02:15.536Z,75.15
2022-10-19T18:04:46.598Z,75.21
2022-10-19T18:07:19.882Z,75.15
2022-10-19T18:09:52.296Z,75.27
2022-10-19T18:12:22.249Z,75.25
2022-10-19T18:15:07.727Z,75.22
2022-10-19T18:20:46.563Z,75.39
2022-10-19T18:23:18.554Z,75.38
2022-10-19T18:26:05.727Z,75.50
2022-10-19T18:28:34.997Z,75.57
2022-10-19T18:31:09.149Z,75.49
2022-10-19T18:33:38.724Z,75.41
2022-10-19T18:36:09.615Z,75.38
2022-10-19T18:38:50.792Z,75.46
2022-10-19T18:41:44.225Z,75.40
2022-10-19T18:44:17.818Z,75.54
2022-10-19T18:46:57.029Z,75.61
2022-10-19T18:49:28.077Z,75.67
2022-10-19T18:51:56.826Z,75.62
2022-10-19T18:54:27.433Z,75.54
2022-10-19T18:56:58.232Z,75.45
2022-10-19T19:01:56.815Z,75.44
2022-10-19T19:04:24.930Z,75.46
2022-10-19T19:06:53.092Z,75.61
2022-10-19T19:09:21.236Z,75.86
2022-10-19T19:11:50.902Z,75.87
2022-10-19T19:14:23.566Z,75.96
2022-10-19T19:16:53.176Z,75.99
2022-10-19T19:19:23.495Z,76.08
2022-10-19T19:21:52.375Z,76.18
2022-10-19T19:24:21.946Z,76.24
2022-10-19T19:26:58.404Z,76.15
2022-10-19T19:29:54.261Z,76.23
2022-10-19T19:32:42.724Z,76.48
2022-10-19T19:35:15.796Z,76.77
2022-10-19T19:40:49.653Z,76.87
2022-10-19T19:43:21.254Z,77.05
2022-10-19T19:46:04.558Z,77.18
2022-10-19T19:48:31.385Z,77.36
2022-10-19T19:50:59.448Z,77.50
2022-10-19T19:53:27.609Z,77.53
2022-10-19T19:55:56.197Z,77.57
2022-10-19T19:58:26.723Z,77.70
2022-10-19T20:01:26.848Z,77.83
2022-10-19T20:07:13.752Z,77.88
2022-10-19T20:09:51.745Z,77.91
2022-10-19T20:12:23.350Z,78.07
2022-10-19T20:14:59.172Z,78.15
2022-10-19T20:17:46.445Z,78.19
2022-10-19T20:20:17.396Z,78.19
2022-10-19T20:22:49.060Z,78.29
2022-10-19T20:25:17.349Z,78.30
2022-10-19T20:27:45.788Z,78.29
2022-10-19T20:30:15.626Z,78.39
2022-10-19T20:32:45.390Z,78.25
2022-10-19T20:35:15.131Z,78.26
2022-10-19T20:37:52.656Z,78.14
2022-10-19T20:40:27.557Z,78.06
2022-10-19T20:42:56.049Z,77.90
2022-10-19T20:45:24.634Z,77.60
2022-10-19T20:47:52.881Z,77.35
2022-10-19T20:50:22.847Z,77.15
2022-10-19T20:52:50.820Z,77.06
2022-10-19T20:55:22.392Z,76.69
2022-10-19T20:57:57.097Z,76.52
2022-10-19T21:00:25.264Z,76.43
2022-10-19T21:02:54.138Z,76.16
2022-10-19T21:05:22.451Z,76.10
2022-10-19T21:07:50.575Z,76.04
2022-10-19T21:10:21.871Z,76.06
2022-10-19T21:12:49.896Z,75.98
2022-10-19T21:15:17.889Z,75.98
2022-10-19T21:17:47.504Z,75.95
2022-10-19T21:20:15.555Z,75.87
2022-10-19T21:22:43.535Z,75.81
2022-10-19T21:25:13.953Z,75.85
2022-10-19T21:27:41.478Z,75.80
2022-10-19T21:30:10.448Z,75.77
2022-10-19T21:32:38.081Z,75.77
2022-10-19T21:35:06.086Z,75.72
2022-10-19T21:37:34.017Z,75.69
2022-10-19T21:40:01.779Z,75.69
2022-10-19T21:42:31.555Z,75.67
2022-10-19T21:45:11.865Z,75.74
2022-10-19T21:47:30.271Z,75.68
2022-10-19T21:49:58.036Z,75.57
2022-10-19T21:52:26.338Z,75.53
2022-10-19T21:54:54.071Z,75.48
2022-10-19T21:57:21.855Z,75.46
2022-10-19T21:59:49.649Z,75.46
2022-10-19T22:02:17.344Z,75.37
2022-10-19T22:04:44.969Z,75.31
2022-10-19T22:07:12.735Z,75.30
2022-10-19T22:09:40.300Z,75.38
2022-10-19T22:12:07.904Z,75.28
2022-10-19T22:14:35.789Z,75.32
2022-10-19T22:17:03.554Z,75.25
2022-10-19T22:19:31.378Z,75.27
2022-10-19T22:21:58.920Z,75.26
2022-10-19T22:24:26.709Z,75.21
2022-10-19T22:26:54.595Z,75.16
2022-10-19T22:29:22.253Z,75.15
2022-10-19T22:31:49.756Z,75.07
2022-10-19T22:34:18.018Z,75.08
2022-10-19T22:36:45.686Z,75.05
2022-10-19T22:39:13.506Z,75.01
2022-10-19T22:41:40.986Z,74.94
2022-10-19T22:44:08.575Z,74.94
2022-10-19T22:46:37.090Z,74.89
2022-10-19T22:49:04.716Z,74.83
2022-10-19T22:51:32.415Z,74.74
2022-10-19T22:54:00.081Z,74.78
2022-10-19T22:56:27.706Z,74.79
2022-10-19T22:59:00.747Z,74.85
2022-10-19T23:01:28.762Z,74.88
2022-10-19T23:03:56.512Z,74.88
2022-10-19T23:06:24.905Z,74.88
2022-10-19T23:08:53.375Z,74.97
2022-10-19T23:11:21.434Z,74.92
2022-10-19T23:13:48.913Z,74.90
2022-10-19T23:16:16.666Z,74.95
2022-10-19T23:18:44.361Z,74.84
2022-10-19T23:21:13.849Z,74.90
2022-10-19T23:23:42.725Z,74.90
2022-10-19T23:26:14.908Z,74.91
2022-10-19T23:28:44.977Z,74.92
2022-10-19T23:31:25.733Z,74.91
2022-10-19T23:33:53.974Z,74.91
2022-10-19T23:36:27.549Z,74.83
2022-10-19T23:38:57.528Z,74.77
2022-10-19T23:41:26.356Z,74.69
2022-10-19T23:44:01.345Z,74.61
2022-10-19T23:46:30.599Z,74.61
2022-10-19T23:49:03.457Z,74.56
2022-10-19T23:51:31.531Z,74.52
2022-10-19T23:54:00.346Z,74.55
2022-10-19T23:56:29.420Z,74.59
2022-10-19T23:58:57.240Z,74.52
